Time;durP1;ratioP1;P1;durP2;ratioP2;P2;SDS_P1;SDS_P2;PMS_P1;PMS_P2;Temp;Humidity;BMP_temperature;BMP_pressure;BME280_temperature;BME280_humidity;BME280_pressure;Samples;Min_cycle;Max_cycle;Signal;HPM_P1;HPM_P2
2022/07/26 00:01:32;;;;;;;3.25;0.70;;;19.80;61.50;;;;;;4819482;29;20050;-79
2022/07/26 00:03:58;;;;;;;1.40;0.57;;;19.80;61.50;;;;;;4820739;29;20404;-78
2022/07/26 00:06:24;;;;;;;3.40;0.70;;;19.80;61.50;;;;;;4817501;29;20401;-78
2022/07/26 00:08:51;;;;;;;1.67;0.63;;;19.80;61.50;;;;;;4826371;29;20030;-78
2022/07/26 00:11:17;;;;;;;3.60;1.15;;;19.80;62.10;;;;;;4831789;29;20106;-76
2022/07/26 00:13:44;;;;;;;2.67;0.55;;;19.70;61.40;;;;;;4829288;29;20034;-75
2022/07/26 00:16:10;;;;;;;1.55;0.60;;;19.70;61.50;;;;;;4803212;29;20036;-75
2022/07/26 00:18:36;;;;;;;2.75;1.08;;;19.70;61.50;;;;;;4815596;29;20484;-76
2022/07/26 00:21:02;;;;;;;1.55;0.65;;;19.70;61.60;;;;;;4818860;29;20069;-76
2022/07/26 00:23:29;;;;;;;2.85;0.70;;;19.70;61.60;;;;;;4799276;29;20038;-76
2022/07/26 00:25:55;;;;;;;2.38;0.68;;;19.70;61.60;;;;;;4816240;29;20265;-76
2022/07/26 00:28:21;;;;;;;2.10;1.20;;;19.70;61.70;;;;;;4817322;29;20102;-76
2022/07/26 00:30:47;;;;;;;3.03;0.70;;;19.70;61.70;;;;;;4799383;29;20076;-76
2022/07/26 00:33:13;;;;;;;1.52;0.50;;;19.70;61.80;;;;;;4815385;29;20435;-76
2022/07/26 00:35:38;;;;;;;1.77;0.77;;;19.70;61.80;;;;;;4817307;29;20057;-76
2022/07/26 00:38:05;;;;;;;1.85;0.70;;;19.70;61.80;;;;;;4817023;29;20053;-76
2022/07/26 00:40:31;;;;;;;1.77;0.60;;;19.70;61.80;;;;;;4818733;29;20038;-76
2022/07/26 00:42:56;;;;;;;2.75;0.80;;;19.70;61.80;;;;;;4816393;29;20334;-77
2022/07/26 00:45:22;;;;;;;3.22;0.70;;;19.70;61.90;;;;;;4803147;29;20126;-76
2022/07/26 00:47:49;;;;;;;1.02;0.50;;;19.70;61.90;;;;;;4814550;29;20045;-77
2022/07/26 00:50:17;;;;;;;1.90;0.70;;;19.70;61.90;;;;;;4817524;29;20042;-77
2022/07/26 00:52:44;;;;;;;1.88;0.70;;;19.70;62.00;;;;;;4816942;29;20507;-77
2022/07/26 00:55:11;;;;;;;3.55;0.75;;;19.70;62.00;;;;;;4804053;29;20102;-77
2022/07/26 00:57:38;;;;;;;2.13;0.75;;;19.70;62.00;;;;;;4815402;29;20034;-77
2022/07/26 01:00:08;;;;;;;1.45;0.68;;;19.70;62.00;;;;;;4800733;29;20413;-77
2022/07/26 01:02:34;;;;;;;1.95;1.00;;;19.70;62.00;;;;;;4815989;29;20034;-76
2022/07/26 01:05:00;;;;;;;3.40;1.00;;;19.70;62.10;;;;;;4801174;29;20110;-75
2022/07/26 01:07:27;;;;;;;3.80;0.90;;;19.70;62.10;;;;;;4817746;29;20447;-75
2022/07/26 01:09:53;;;;;;;2.45;0.50;;;19.70;62.00;;;;;;4820880;29;20034;-78
2022/07/26 01:12:19;;;;;;;1.42;0.68;;;19.70;62.10;;;;;;4797694;29;20543;-75
2022/07/26 01:14:45;;;;;;;3.05;0.95;;;19.70;62.10;;;;;;4820600;29;20081;-76
2022/07/26 01:17:12;;;;;;;1.23;0.75;;;19.70;62.20;;;;;;4814310;29;20446;-77
2022/07/26 01:19:39;;;;;;;4.53;0.82;;;19.70;62.20;;;;;;4813781;29;20133;-78
2022/07/26 01:22:05;;;;;;;1.67;0.73;;;19.70;62.20;;;;;;4815682;29;20481;-78
2022/07/26 01:24:31;;;;;;;1.63;0.93;;;19.70;62.30;;;;;;4815880;29;20057;-78
2022/07/26 01:26:57;;;;;;;4.50;1.38;;;19.70;62.40;;;;;;4816015;29;20400;-77
2022/07/26 01:29:23;;;;;;;2.72;0.90;;;19.60;62.20;;;;;;4819621;29;20121;-78
2022/07/26 01:31:51;;;;;;;2.50;0.82;;;19.60;62.30;;;;;;4813007;29;20026;-77
2022/07/26 01:34:17;;;;;;;4.32;1.05;;;19.60;62.30;;;;;;4815039;29;20068;-77
2022/07/26 01:36:43;;;;;;;0.73;0.57;;;19.60;62.40;;;;;;4816181;29;20058;-77
2022/07/26 01:39:09;;;;;;;2.30;0.98;;;19.50;62.20;;;;;;4816988;29;20569;-77
2022/07/26 01:41:35;;;;;;;3.78;0.63;;;19.50;62.20;;;;;;4800267;29;20061;-78
2022/07/26 01:44:02;;;;;;;3.30;0.75;;;19.50;62.40;;;;;;4817981;29;20425;-77
2022/07/26 01:46:28;;;;;;;2.50;0.93;;;19.50;62.30;;;;;;4815827;29;20023;-78
2022/07/26 01:48:54;;;;;;;2.47;0.90;;;19.50;62.30;;;;;;4815249;29;20172;-78
2022/07/26 01:51:20;;;;;;;2.70;1.08;;;19.50;62.40;;;;;;4814838;29;20086;-77
2022/07/26 01:53:46;;;;;;;2.47;0.77;;;19.50;62.40;;;;;;4816577;29;20116;-77
2022/07/26 01:56:12;;;;;;;2.55;0.98;;;19.40;62.30;;;;;;4818291;29;20038;-77
2022/07/26 01:58:39;;;;;;;1.42;0.60;;;19.40;62.30;;;;;;4800655;29;20065;-78
2022/07/26 02:01:06;;;;;;;3.22;1.00;;;19.40;62.30;;;;;;4814936;29;20057;-77
2022/07/26 02:03:32;;;;;;;1.17;0.50;;;19.40;62.30;;;;;;4814423;29;20030;-77
2022/07/26 02:05:58;;;;;;;3.53;0.82;;;19.30;62.20;;;;;;4815536;29;20061;-78
2022/07/26 02:08:23;;;;;;;1.67;0.65;;;19.30;62.20;;;;;;4799243;29;20326;-78
2022/07/26 02:11:00;;;;;;;3.40;0.82;;;19.30;62.30;;;;;;4815619;29;20642;-78
2022/07/26 02:13:34;;;;;;;1.45;0.60;;;19.30;62.40;;;;;;4815283;29;20030;-78
2022/07/26 02:16:06;;;;;;;2.92;0.95;;;19.30;62.40;;;;;;4817081;29;20064;-78
2022/07/26 02:18:32;;;;;;;3.80;0.95;;;19.30;62.50;;;;;;4815067;29;20384;-78
2022/07/26 02:21:00;;;;;;;3.60;1.00;;;19.20;62.30;;;;;;4817060;29;20046;-77
2022/07/26 02:23:27;;;;;;;3.25;0.70;;;19.20;62.40;;;;;;4820036;29;20041;-78
2022/07/26 02:25:53;;;;;;;3.80;1.25;;;19.20;62.50;;;;;;4817394;29;20054;-77
2022/07/26 02:28:20;;;;;;;3.33;1.00;;;19.20;62.50;;;;;;4817096;29;20556;-77
2022/07/26 02:30:47;;;;;;;1.58;0.80;;;19.10;62.30;;;;;;4819234;29;20030;-77
2022/07/26 02:33:13;;;;;;;1.25;0.65;;;19.10;62.40;;;;;;4813037;29;20030;-77
2022/07/26 02:35:40;;;;;;;1.75;0.98;;;19.10;62.50;;;;;;4815449;29;20079;-78
2022/07/26 02:38:08;;;;;;;3.00;1.15;;;19.10;62.60;;;;;;4814610;29;20066;-78
2022/07/26 02:40:36;;;;;;;3.47;0.70;;;19.00;62.40;;;;;;4816868;29;20058;-78
2022/07/26 02:43:03;;;;;;;3.03;1.20;;;19.00;62.50;;;;;;4813679;29;20042;-78
2022/07/26 02:45:30;;;;;;;2.28;0.60;;;19.00;62.60;;;;;;4816457;29;20261;-78
2022/07/26 02:47:55;;;;;;;2.67;0.80;;;19.00;62.60;;;;;;4813695;29;20400;-77
2022/07/26 02:50:24;;;;;;;2.28;0.55;;;18.90;62.50;;;;;;4816016;29;20434;-77
2022/07/26 02:52:51;;;;;;;1.92;0.68;;;18.90;62.60;;;;;;4816669;29;20133;-77
2022/07/26 02:55:20;;;;;;;1.63;0.90;;;18.80;62.40;;;;;;4819702;29;20614;-77
2022/07/26 02:57:47;;;;;;;2.42;0.60;;;18.80;62.50;;;;;;4814666;29;20022;-77
2022/07/26 03:00:16;;;;;;;3.08;0.93;;;18.80;62.50;;;;;;4798488;29;20122;-77
2022/07/26 03:02:42;;;;;;;2.72;0.65;;;18.80;62.50;;;;;;4815850;29;20452;-78
2022/07/26 03:05:09;;;;;;;2.00;0.77;;;18.70;62.40;;;;;;4816797;29;20140;-77
2022/07/26 03:07:35;;;;;;;2.65;1.10;;;18.70;62.50;;;;;;4816069;29;20481;-77
2022/07/26 03:10:01;;;;;;;3.25;1.35;;;18.70;62.50;;;;;;4817018;29;20431;-77
2022/07/26 03:12:27;;;;;;;2.65;0.73;;;18.70;62.50;;;;;;4814784;29;20548;-77
2022/07/26 03:14:53;;;;;;;3.72;0.82;;;18.70;62.60;;;;;;4818459;29;20333;-77
2022/07/26 03:17:19;;;;;;;3.50;1.00;;;18.60;62.50;;;;;;4815294;29;20389;-78
2022/07/26 03:19:45;;;;;;;1.67;0.63;;;18.60;62.50;;;;;;4816060;29;20042;-77
2022/07/26 03:22:11;;;;;;;4.15;1.20;;;18.60;62.50;;;;;;4811969;29;20403;-77
2022/07/26 03:24:37;;;;;;;2.50;0.98;;;18.60;62.50;;;;;;4817059;29;20459;-78
2022/07/26 03:27:03;;;;;;;2.45;0.80;;;18.60;62.50;;;;;;4797262;29;20047;-77
2022/07/26 03:29:29;;;;;;;1.52;1.10;;;18.60;62.50;;;;;;4815074;29;20422;-78
2022/07/26 03:31:55;;;;;;;1.35;0.60;;;18.60;62.60;;;;;;4813010;29;20322;-78
2022/07/26 03:34:21;;;;;;;2.90;1.42;;;18.60;62.60;;;;;;4816696;29;20469;-78
2022/07/26 03:36:47;;;;;;;3.65;0.80;;;18.50;62.40;;;;;;4814297;29;20062;-78
2022/07/26 03:39:13;;;;;;;3.03;1.20;;;18.50;62.40;;;;;;4815872;29;20283;-78
2022/07/26 03:41:39;;;;;;;3.28;1.38;;;18.50;62.40;;;;;;4815667;29;20082;-78
2022/07/26 03:44:04;;;;;;;2.13;0.90;;;18.50;62.40;;;;;;4816253;29;20102;-77
2022/07/26 03:46:30;;;;;;;2.00;0.75;;;18.50;62.40;;;;;;4801246;29;20103;-78
2022/07/26 03:48:56;;;;;;;2.45;1.17;;;18.50;62.40;;;;;;4813492;29;20034;-77
2022/07/26 03:51:22;;;;;;;4.10;1.25;;;18.50;62.40;;;;;;4814038;29;20192;-76
2022/07/26 03:53:48;;;;;;;2.92;1.08;;;18.50;62.40;;;;;;4814560;29;20045;-77
2022/07/26 03:56:33;;;;;;;3.38;1.58;;;18.50;62.40;;;;;;4816797;29;20133;-77
2022/07/26 03:59:05;;;;;;;2.88;0.80;;;18.50;62.40;;;;;;4812141;29;20050;-76
2022/07/26 04:01:33;;;;;;;1.00;0.73;;;18.50;62.30;;;;;;4813301;29;20552;-79
2022/07/26 04:04:00;;;;;;;3.80;1.48;;;18.50;62.30;;;;;;4811965;29;20083;-79
2022/07/26 04:06:26;;;;;;;2.55;1.25;;;18.50;62.30;;;;;;4797844;29;20449;-76
2022/07/26 04:08:53;;;;;;;2.38;0.93;;;18.50;62.30;;;;;;4814747;29;20366;-77
2022/07/26 04:11:19;;;;;;;1.70;0.80;;;18.50;62.30;;;;;;4813776;29;20033;-77
2022/07/26 04:13:45;;;;;;;1.63;0.85;;;18.50;62.20;;;;;;4814512;29;20030;-78
2022/07/26 04:16:11;;;;;;;3.00;0.93;;;18.50;62.20;;;;;;4817784;29;20033;-77
2022/07/26 04:18:36;;;;;;;3.65;1.35;;;18.50;62.20;;;;;;4814806;29;20787;-78
2022/07/26 04:21:03;;;;;;;2.97;0.65;;;18.50;62.20;;;;;;4819937;29;20058;-77
2022/07/26 04:23:29;;;;;;;3.10;0.70;;;18.50;62.10;;;;;;4822851;29;20034;-78
2022/07/26 04:25:55;;;;;;;2.38;0.70;;;18.50;62.10;;;;;;4822460;29;20063;-78
2022/07/26 04:28:21;;;;;;;1.88;1.10;;;18.50;62.00;;;;;;4835698;29;20079;-77
2022/07/26 04:30:47;;;;;;;2.38;0.88;;;18.60;62.20;;;;;;4840306;29;20030;-77
2022/07/26 04:33:13;;;;;;;2.55;1.23;;;18.50;62.00;;;;;;4833795;29;20093;-78
2022/07/26 04:35:38;;;;;;;2.20;1.20;;;18.50;61.90;;;;;;4820699;29;20038;-77
2022/07/26 04:38:04;;;;;;;3.05;1.55;;;18.50;61.90;;;;;;4818388;29;20065;-77
2022/07/26 04:40:32;;;;;;;2.08;0.90;;;18.50;61.90;;;;;;4818051;29;20072;-77
2022/07/26 04:43:00;;;;;;;2.80;0.88;;;18.50;62.40;;;;;;4818532;29;20233;-77
2022/07/26 04:45:26;;;;;;;1.67;1.10;;;18.50;61.80;;;;;;4802939;29;20033;-77
2022/07/26 04:47:52;;;;;;;2.58;0.60;;;18.50;61.80;;;;;;4819510;29;20039;-77
2022/07/26 04:50:20;;;;;;;1.92;0.80;;;18.50;61.80;;;;;;4823080;29;20034;-77
2022/07/26 04:52:46;;;;;;;1.90;1.17;;;18.50;61.80;;;;;;4805755;29;20511;-78
2022/07/26 04:55:13;;;;;;;3.58;0.88;;;18.50;62.30;;;;;;4822846;29;20070;-78
2022/07/26 04:57:39;;;;;;;1.08;0.60;;;18.50;61.70;;;;;;4819705;29;20122;-77
2022/07/26 05:00:07;;;;;;;3.08;0.80;;;18.50;61.70;;;;;;4815889;29;20043;-77
2022/07/26 05:02:33;;;;;;;3.67;1.55;;;18.50;61.60;;;;;;4818035;29;20045;-77
2022/07/26 05:04:59;;;;;;;6.35;1.00;;;18.50;61.60;;;;;;4802153;29;20045;-77
2022/07/26 05:07:25;;;;;;;1.70;1.02;;;18.60;61.70;;;;;;4814860;29;20069;-77
2022/07/26 05:09:51;;;;;;;4.47;0.85;;;18.60;61.70;;;;;;4820669;29;20195;-77
2022/07/26 05:12:17;;;;;;;2.33;0.85;;;18.60;62.20;;;;;;4813460;29;20030;-78
2022/07/26 05:14:43;;;;;;;1.95;0.77;;;18.60;61.60;;;;;;4815395;29;20125;-78
2022/07/26 05:17:10;;;;;;;2.03;0.98;;;18.60;61.60;;;;;;4814270;29;20034;-78
2022/07/26 05:19:36;;;;;;;2.05;0.50;;;18.60;61.60;;;;;;4817123;29;20098;-78
2022/07/26 05:22:02;;;;;;;1.80;0.75;;;18.70;61.70;;;;;;4815845;29;20042;-82
2022/07/26 05:24:28;;;;;;;2.83;0.80;;;18.70;61.70;;;;;;4800559;29;20556;-81
2022/07/26 05:26:54;;;;;;;3.67;0.50;;;18.70;61.60;;;;;;4815481;29;20119;-80
2022/07/26 05:29:19;;;;;;;0.98;0.60;;;18.70;61.60;;;;;;4802327;29;20557;-80
2022/07/26 05:31:45;;;;;;;2.70;1.00;;;18.70;61.60;;;;;;4816436;29;20034;-80
2022/07/26 05:34:12;;;;;;;2.60;1.15;;;18.70;61.40;;;;;;4817390;29;20026;-80
2022/07/26 05:36:38;;;;;;;3.35;1.15;;;18.70;60.90;;;;;;4816733;29;20053;-83
2022/07/26 05:39:04;;;;;;;3.50;0.95;;;18.70;60.50;;;;;;4820546;29;20476;-80
2022/07/26 05:41:30;;;;;;;2.65;0.95;;;18.60;60.00;;;;;;4815796;29;20042;-81
2022/07/26 05:43:56;;;;;;;3.85;0.98;;;18.60;59.70;;;;;;4798470;29;20034;-80
2022/07/26 05:46:21;;;;;;;4.05;0.90;;;18.50;59.30;;;;;;4814933;29;20058;-79
2022/07/26 05:48:47;;;;;;;3.90;1.20;;;18.40;58.90;;;;;;4815046;29;20034;-80
2022/07/26 05:51:13;;;;;;;5.18;1.50;;;18.40;58.70;;;;;;4815032;29;20034;-80
2022/07/26 05:53:39;;;;;;;3.30;1.00;;;18.40;58.50;;;;;;4815249;29;20539;-78
2022/07/26 05:56:05;;;;;;;4.80;1.27;;;18.40;58.40;;;;;;4798374;29;20038;-78
2022/07/26 05:58:31;;;;;;;5.85;1.83;;;18.40;58.20;;;;;;4798096;29;20046;-77
2022/07/26 06:00:57;;;;;;;8.60;1.63;;;18.40;58.00;;;;;;4812380;29;20603;-78
2022/07/26 06:03:24;;;;;;;2.47;0.80;;;18.40;57.80;;;;;;4809177;29;20114;-77
2022/07/26 06:05:59;;;;;;;4.43;1.52;;;18.40;57.60;;;;;;4814747;29;20478;-77
2022/07/26 06:08:25;;;;;;;2.80;1.05;;;18.40;57.30;;;;;;4816085;29;20168;-78
2022/07/26 06:10:52;;;;;;;3.42;1.13;;;18.40;57.30;;;;;;4815688;29;20511;-79
2022/07/26 06:13:18;;;;;;;3.60;0.93;;;18.40;57.20;;;;;;4815437;29;20034;-80
2022/07/26 06:15:44;;;;;;;5.45;1.30;;;18.40;57.10;;;;;;4817001;29;20050;-79
2022/07/26 06:18:11;;;;;;;3.70;0.80;;;18.40;57.60;;;;;;4801201;29;20049;-80
2022/07/26 06:20:42;;;;;;;4.30;1.52;;;18.40;57.00;;;;;;4817751;29;20129;-79
2022/07/26 06:23:08;;;;;;;3.75;0.60;;;18.40;57.00;;;;;;4818625;29;20529;-79
2022/07/26 06:25:34;;;;;;;8.45;1.70;;;18.50;57.20;;;;;;4815642;29;20035;-79
2022/07/26 06:28:05;;;;;;;1.70;0.57;;;18.50;57.00;;;;;;4816033;29;20550;-80
2022/07/26 06:30:31;;;;;;;7.47;1.17;;;18.60;57.10;;;;;;4814193;29;20047;-79
2022/07/26 06:32:57;;;;;;;3.30;0.90;;;18.60;56.80;;;;;;4812536;29;20034;-79
2022/07/26 06:35:23;;;;;;;2.28;0.85;;;18.80;57.60;;;;;;4814505;29;20034;-79
2022/07/26 06:37:49;;;;;;;2.80;1.02;;;18.80;56.80;;;;;;4815990;29;20122;-78
2022/07/26 06:40:15;;;;;;;2.95;0.68;;;18.90;56.70;;;;;;4814407;29;20053;-80
2022/07/26 06:42:56;;;;;;;4.50;1.30;;;19.00;56.70;;;;;;4784535;29;20050;-79
2022/07/26 06:45:22;;;;;;;1.95;0.90;;;19.10;56.70;;;;;;4814010;29;20520;-79
2022/07/26 06:47:48;;;;;;;2.72;1.05;;;19.10;56.50;;;;;;4812315;29;20030;-79
2022/07/26 06:50:14;;;;;;;2.30;0.88;;;19.20;56.50;;;;;;4813940;29;20065;-80
2022/07/26 06:52:40;;;;;;;7.25;1.08;;;19.20;56.40;;;;;;4811823;29;20043;-78
2022/07/26 06:55:07;;;;;;;4.32;1.02;;;19.30;56.50;;;;;;4814695;29;20046;-78
2022/07/26 06:57:34;;;;;;;5.45;0.95;;;19.30;56.50;;;;;;4813856;29;20113;-78
2022/07/26 07:00:02;;;;;;;1.92;0.73;;;19.30;56.50;;;;;;4815359;29;20398;-79
2022/07/26 07:02:28;;;;;;;4.72;1.10;;;19.30;56.40;;;;;;4813711;29;20034;-80
2022/07/26 07:04:55;;;;;;;2.45;0.80;;;19.30;56.20;;;;;;4817006;29;20026;-80
2022/07/26 07:07:20;;;;;;;3.20;0.60;;;19.40;56.20;;;;;;4801116;29;20030;-79
2022/07/26 07:09:46;;;;;;;4.15;1.20;;;19.50;56.10;;;;;;4813805;29;20677;-79
2022/07/26 07:12:14;;;;;;;2.75;0.95;;;19.50;55.90;;;;;;4814218;29;20405;-80
2022/07/26 07:14:40;;;;;;;1.77;0.98;;;19.70;56.00;;;;;;4814003;29;20720;-80
2022/07/26 07:17:07;;;;;;;2.42;0.88;;;19.80;55.90;;;;;;4810370;29;20064;-79
2022/07/26 07:19:35;;;;;;;3.28;0.77;;;19.90;55.60;;;;;;4814934;29;20275;-79
2022/07/26 07:22:02;;;;;;;3.03;0.90;;;19.90;55.00;;;;;;4811709;29;20026;-80
2022/07/26 07:24:28;;;;;;;4.15;0.90;;;20.10;54.80;;;;;;4815816;29;20057;-79
2022/07/26 07:26:54;;;;;;;4.28;0.98;;;20.20;54.50;;;;;;4820999;29;20030;-79
2022/07/26 07:29:20;;;;;;;3.40;0.90;;;20.30;54.30;;;;;;4817198;29;20080;-79
2022/07/26 07:31:47;;;;;;;4.93;1.00;;;20.20;53.80;;;;;;4816374;29;20035;-79
2022/07/26 07:34:14;;;;;;;2.30;0.70;;;20.30;53.80;;;;;;4798763;29;20030;-79
2022/07/26 07:36:40;;;;;;;4.85;1.50;;;20.20;53.50;;;;;;4813443;29;20081;-79
2022/07/26 07:39:06;;;;;;;1.05;0.50;;;20.30;53.50;;;;;;4814344;29;20041;-79
2022/07/26 07:41:33;;;;;;;3.42;0.63;;;20.30;53.30;;;;;;4816177;29;20122;-81
2022/07/26 07:44:02;;;;;;;4.00;1.00;;;20.40;53.40;;;;;;4813331;29;20035;-82
2022/07/26 07:46:28;;;;;;;5.38;0.77;;;20.70;53.60;;;;;;4813891;29;20045;-81
2022/07/26 07:48:54;;;;;;;6.22;1.00;;;21.00;53.40;;;;;;4812147;29;20437;-80
2022/07/26 07:51:20;;;;;;;1.65;0.60;;;21.20;53.10;;;;;;4813282;29;20058;-88
2022/07/26 07:53:46;;;;;;;2.45;0.50;;;21.60;52.90;;;;;;4813396;29;20054;-77
2022/07/26 07:56:12;;;;;;;4.35;1.08;;;22.10;52.60;;;;;;4812505;29;20086;-78
2022/07/26 07:58:38;;;;;;;3.58;1.00;;;22.40;51.90;;;;;;4814253;29;20046;-78
2022/07/26 08:01:04;;;;;;;4.55;1.30;;;22.60;51.70;;;;;;4813809;29;20070;-77
2022/07/26 08:03:30;;;;;;;4.30;0.88;;;22.80;51.70;;;;;;4817622;29;20157;-76
2022/07/26 08:05:56;;;;;;;1.85;0.70;;;22.90;51.50;;;;;;4817621;29;20465;-77
2022/07/26 08:08:22;;;;;;;3.47;1.17;;;23.20;51.70;;;;;;4821507;29;20491;-77
2022/07/26 08:10:47;;;;;;;3.83;0.93;;;23.40;51.50;;;;;;4817361;29;20439;-77
2022/07/26 08:13:13;;;;;;;2.63;1.23;;;23.70;51.40;;;;;;4816934;29;20034;-76
2022/07/26 08:15:39;;;;;;;4.57;0.70;;;23.80;50.90;;;;;;4800214;29;20035;-80
2022/07/26 08:18:05;;;;;;;1.98;0.60;;;24.00;51.00;;;;;;4816159;29;20031;-78
2022/07/26 08:20:31;;;;;;;3.10;0.93;;;24.00;50.70;;;;;;4818424;29;20055;-78
2022/07/26 08:22:57;;;;;;;2.78;1.00;;;24.10;50.70;;;;;;4799462;29;20106;-79
2022/07/26 08:25:23;;;;;;;2.13;0.60;;;24.00;50.60;;;;;;4816382;29;20543;-78
2022/07/26 08:27:49;;;;;;;1.85;0.70;;;23.90;50.50;;;;;;4801928;29;20119;-78
2022/07/26 08:30:15;;;;;;;4.00;0.93;;;23.80;50.40;;;;;;4818543;29;20473;-79
2022/07/26 08:32:41;;;;;;;4.40;0.88;;;23.80;50.40;;;;;;4814101;29;20126;-78
2022/07/26 08:35:08;;;;;;;3.92;1.35;;;23.80;50.40;;;;;;4817069;29;20541;-78
2022/07/26 08:37:34;;;;;;;3.20;0.70;;;23.70;50.20;;;;;;4818692;29;20487;-77
2022/07/26 08:40:00;;;;;;;2.17;0.70;;;23.60;50.00;;;;;;4817328;29;20046;-77
2022/07/26 08:42:25;;;;;;;3.92;0.65;;;23.60;50.00;;;;;;4818606;29;20022;-77
2022/07/26 08:44:51;;;;;;;2.78;0.75;;;23.60;49.90;;;;;;4817772;29;20077;-77
2022/07/26 08:47:18;;;;;;;1.67;0.70;;;23.60;49.80;;;;;;4814022;29;20027;-78
2022/07/26 08:49:45;;;;;;;4.65;0.88;;;23.50;49.40;;;;;;4820538;29;20065;-77
2022/07/26 08:52:13;;;;;;;3.55;1.20;;;23.60;49.30;;;;;;4815841;29;20037;-76
2022/07/26 08:54:48;;;;;;;2.17;0.90;;;23.70;49.30;;;;;;4817685;29;20042;-75
2022/07/26 08:57:15;;;;;;;3.60;0.93;;;23.70;49.00;;;;;;4817508;29;20061;-76
2022/07/26 08:59:41;;;;;;;2.40;0.73;;;23.70;49.10;;;;;;4817554;29;20077;-76
2022/07/26 09:02:12;;;;;;;2.45;1.10;;;23.60;48.90;;;;;;4813329;29;20058;-76
2022/07/26 09:04:45;;;;;;;3.55;1.30;;;23.50;48.70;;;;;;4816537;29;20066;-77
2022/07/26 09:07:12;;;;;;;4.28;1.88;;;23.30;48.50;;;;;;4816469;29;20042;-77
2022/07/26 09:09:59;;;;;;;2.03;0.60;;;23.20;48.50;;;;;;4818161;29;20062;-79
2022/07/26 09:12:27;;;;;;;3.33;0.90;;;23.00;48.30;;;;;;4815298;29;20099;-79
2022/07/26 09:14:54;;;;;;;4.95;1.67;;;22.90;48.60;;;;;;4815887;29;20546;-78
2022/07/26 09:17:22;;;;;;;3.78;1.48;;;22.70;48.60;;;;;;4815356;29;20079;-78
2022/07/26 09:20:16;;;;;;;3.55;1.23;;;22.60;48.50;;;;;;4816363;29;20066;-78
2022/07/26 09:23:07;;;;;;;1.88;0.52;;;22.50;48.40;;;;;;4811879;29;20034;-76
2022/07/26 09:25:42;;;;;;;2.45;1.02;;;22.40;48.40;;;;;;4816143;29;20545;-76
2022/07/26 09:28:28;;;;;;;5.13;1.50;;;22.40;48.50;;;;;;4799662;29;20452;-78
2022/07/26 09:30:57;;;;;;;2.67;1.00;;;22.40;48.40;;;;;;4818107;29;20026;-76
2022/07/26 09:33:24;;;;;;;3.10;0.90;;;22.40;48.50;;;;;;4808394;29;20524;-77
2022/07/26 09:36:01;;;;;;;4.32;1.15;;;22.40;48.60;;;;;;4813951;29;20030;-77
2022/07/26 09:38:42;;;;;;;4.82;0.82;;;22.40;48.40;;;;;;4815776;29;20069;-77
2022/07/26 09:41:22;;;;;;;2.65;0.80;;;22.50;48.40;;;;;;4820541;29;20417;-77
2022/07/26 09:43:49;;;;;;;2.03;0.70;;;22.60;48.40;;;;;;4818320;29;20087;-77
2022/07/26 09:46:16;;;;;;;5.43;1.05;;;22.80;48.50;;;;;;4825342;29;20042;-77
2022/07/26 09:48:43;;;;;;;4.57;1.27;;;23.00;48.50;;;;;;4827757;29;20035;-76
2022/07/26 09:51:09;;;;;;;3.50;0.85;;;23.10;48.40;;;;;;4837214;29;20133;-79
2022/07/26 09:53:44;;;;;;;3.30;1.05;;;23.20;48.30;;;;;;4810635;29;20042;-78
2022/07/26 09:56:10;;;;;;;3.53;0.60;;;23.30;48.10;;;;;;4825241;29;20035;-78
2022/07/26 09:58:37;;;;;;;2.10;0.68;;;23.40;48.20;;;;;;4818248;29;20052;-78
2022/07/26 10:01:05;;;;;;;2.47;1.10;;;23.40;48.00;;;;;;4814071;29;20038;-78
2022/07/26 10:03:32;;;;;;;4.00;1.00;;;23.50;48.10;;;;;;4813447;29;20037;-78
2022/07/26 10:05:58;;;;;;;2.53;0.70;;;23.50;48.00;;;;;;4814802;29;20038;-78
2022/07/26 10:08:25;;;;;;;2.30;0.57;;;23.30;47.60;;;;;;4817570;29;20029;-78
2022/07/26 10:11:09;;;;;;;2.42;0.90;;;23.20;47.40;;;;;;4813877;29;20120;-78
2022/07/26 10:13:36;;;;;;;3.05;1.05;;;23.10;47.20;;;;;;4814244;29;21053;-78
2022/07/26 10:16:03;;;;;;;3.15;1.20;;;23.00;47.30;;;;;;4814736;29;20022;-78
2022/07/26 10:18:37;;;;;;;1.67;0.60;;;23.10;47.30;;;;;;4815082;29;20352;-78
2022/07/26 10:21:30;;;;;;;4.22;1.20;;;23.10;47.00;;;;;;4813262;29;20288;-78
2022/07/26 10:23:59;;;;;;;3.50;0.68;;;23.10;46.80;;;;;;4811457;29;20043;-78
2022/07/26 10:26:30;;;;;;;1.75;0.68;;;23.10;47.10;;;;;;4816120;29;20026;-78
2022/07/26 10:29:17;;;;;;;2.42;0.90;;;23.20;47.30;;;;;;4816924;29;20030;-78
2022/07/26 10:31:48;;;;;;;2.25;0.80;;;23.40;47.20;;;;;;4802458;29;20516;-78
2022/07/26 10:34:34;;;;;;;1.35;0.73;;;23.60;47.40;;;;;;4813924;29;20110;-78
2022/07/26 10:37:03;;;;;;;1.75;0.68;;;23.90;47.20;;;;;;4814954;29;20062;-78
2022/07/26 10:39:29;;;;;;;2.55;0.95;;;24.10;47.20;;;;;;4816065;29;20042;-78
2022/07/26 10:42:01;;;;;;;1.52;0.60;;;24.20;47.10;;;;;;4815864;29;20038;-78
2022/07/26 10:44:30;;;;;;;2.20;0.80;;;24.20;47.00;;;;;;4816032;29;20034;-78
2022/07/26 10:47:07;;;;;;;1.05;0.65;;;24.30;47.10;;;;;;4813985;29;20799;-78
2022/07/26 10:49:40;;;;;;;0.90;0.38;;;24.30;46.60;;;;;;4813206;29;20123;-79
2022/07/26 10:52:14;;;;;;;1.70;0.50;;;24.30;46.40;;;;;;4813659;29;20090;-79
2022/07/26 10:54:58;;;;;;;3.60;0.75;;;24.20;46.10;;;;;;4812384;29;20042;-79
2022/07/26 10:57:31;;;;;;;2.90;1.02;;;24.00;45.70;;;;;;4814230;29;20066;-78
2022/07/26 10:59:58;;;;;;;2.85;0.90;;;23.80;45.80;;;;;;4814452;29;20072;-77
2022/07/26 11:02:31;;;;;;;3.25;1.20;;;23.80;46.00;;;;;;4809980;29;20206;-77
2022/07/26 11:05:12;;;;;;;0.73;0.50;;;23.90;46.00;;;;;;4799762;29;20030;-77
2022/07/26 11:07:58;;;;;;;1.25;0.80;;;24.10;45.80;;;;;;4813466;29;20058;-78
2022/07/26 11:10:25;;;;;;;1.33;0.50;;;24.30;45.70;;;;;;4814628;29;20060;-78
2022/07/26 11:13:30;;;;;;;1.35;0.68;;;24.50;45.90;;;;;;4815405;29;20031;-78
2022/07/26 11:16:02;;;;;;;3.35;0.95;;;24.60;45.40;;;;;;4813750;29;20094;-79
2022/07/26 11:18:31;;;;;;;3.58;0.55;;;24.90;45.80;;;;;;4810413;29;20034;-77
2022/07/26 11:21:11;;;;;;;2.72;0.80;;;25.10;45.70;;;;;;4797916;29;20396;-79
2022/07/26 11:23:39;;;;;;;1.83;0.88;;;25.30;45.30;;;;;;4797809;29;20477;-81
2022/07/26 11:26:06;;;;;;;2.97;1.08;;;25.50;45.20;;;;;;4783596;29;20161;-77
2022/07/26 11:28:54;;;;;;;2.03;0.85;;;25.80;45.00;;;;;;4813878;29;20552;-78
2022/07/26 11:31:34;;;;;;;3.00;0.80;;;26.00;44.50;;;;;;4814632;29;20510;-77
2022/07/26 11:34:00;;;;;;;3.47;0.68;;;26.00;44.50;;;;;;4810266;29;20259;-77
2022/07/26 11:36:38;;;;;;;1.70;0.82;;;25.80;44.70;;;;;;4815445;29;20390;-77
2022/07/26 11:39:07;;;;;;;5.60;0.82;;;25.70;44.90;;;;;;4814000;29;20042;-81
2022/07/26 11:41:34;;;;;;;10.15;1.35;;;25.80;45.00;;;;;;4800517;29;20034;-77
2022/07/26 11:44:02;;;;;;;1.92;0.98;;;26.00;44.90;;;;;;4813999;29;20238;-79
2022/07/26 11:46:39;;;;;;;2.15;0.77;;;26.30;44.60;;;;;;4816674;29;20509;-78
2022/07/26 11:49:19;;;;;;;1.95;0.73;;;26.60;43.90;;;;;;4797532;29;20061;-81
2022/07/26 11:51:51;;;;;;;1.05;0.60;;;26.70;43.60;;;;;;4814674;29;20039;-80
2022/07/26 11:54:18;;;;;;;1.65;0.80;;;26.90;43.40;;;;;;4810878;29;20043;-80
2022/07/26 11:56:52;;;;;;;2.13;1.08;;;27.10;43.40;;;;;;4812492;29;20470;-80
2022/07/26 11:59:22;;;;;;;1.77;0.60;;;27.20;43.00;;;;;;4810181;29;20043;-79
2022/07/26 12:01:48;;;;;;;2.20;0.93;;;27.20;43.10;;;;;;4796876;29;20026;-78
2022/07/26 12:04:23;;;;;;;1.77;0.60;;;27.10;43.00;;;;;;4814693;29;20596;-79
2022/07/26 12:06:54;;;;;;;2.00;0.70;;;27.10;42.70;;;;;;4799323;29;20069;-78
2022/07/26 12:09:33;;;;;;;2.75;0.63;;;27.00;42.90;;;;;;4814719;29;20086;-81
2022/07/26 12:12:01;;;;;;;2.10;0.73;;;26.80;42.80;;;;;;4800158;29;20358;-77
2022/07/26 12:14:29;;;;;;;1.48;0.65;;;26.80;43.10;;;;;;4814387;29;20049;-79
2022/07/26 12:16:56;;;;;;;4.55;0.77;;;26.70;43.30;;;;;;4816057;29;20030;-78
2022/07/26 12:19:27;;;;;;;2.67;0.70;;;26.80;43.30;;;;;;4801638;29;20073;-77
2022/07/26 12:22:07;;;;;;;1.77;0.52;;;27.00;43.00;;;;;;4814555;29;20191;-77
2022/07/26 12:24:52;;;;;;;2.58;0.88;;;27.10;42.50;;;;;;4812014;29;20366;-77
2022/07/26 12:27:27;;;;;;;1.88;0.77;;;27.10;42.40;;;;;;4809261;29;20035;-77
2022/07/26 12:30:14;;;;;;;2.25;0.82;;;27.20;42.30;;;;;;4817020;29;20469;-77
2022/07/26 12:32:42;;;;;;;3.13;0.93;;;27.20;42.20;;;;;;4813119;29;20433;-77
2022/07/26 12:35:08;;;;;;;2.38;0.50;;;27.20;42.20;;;;;;4815000;29;20568;-77
2022/07/26 12:37:44;;;;;;;1.42;0.57;;;27.20;42.10;;;;;;4800755;29;20158;-77
2022/07/26 12:40:19;;;;;;;1.88;0.82;;;27.10;42.00;;;;;;4819087;29;20062;-77
2022/07/26 12:42:51;;;;;;;2.90;0.68;;;27.10;42.10;;;;;;4817008;29;20121;-79
2022/07/26 12:45:21;;;;;;;2.33;0.63;;;27.00;42.00;;;;;;4817050;29;20038;-76
2022/07/26 12:47:50;;;;;;;2.90;0.90;;;27.00;42.20;;;;;;4818531;29;20480;-76
2022/07/26 12:50:18;;;;;;;1.60;0.75;;;26.90;42.20;;;;;;4815296;29;20419;-76
2022/07/26 12:52:45;;;;;;;1.75;0.57;;;26.90;42.20;;;;;;4818013;29;20074;-77
2022/07/26 12:55:15;;;;;;;2.92;0.60;;;26.80;42.20;;;;;;4816110;29;20038;-77